Huvudsida
METAR-TAF:

METAR-TAF

Flygplatser :

Bagdads internationella flygplats

Bagdad, Irak

latitud: 33-15-45N, longitud: 44-14-04E, höjd: 35 m

Aktuellt väderrapport

Denna rapport gjordes för 40 minuter sedan, klockan 12:00 UTC
Vind 17 kt från väst/nordväst i byarna ända upp till 27 kt
Temperatur 27°C
Fuktighet 21%
Tryck 1017 hPa
Sikt 10 km eller mer
Spridda moln på en höjd av 3000 ft

METAR: ORBI 251200Z 29017G27KT 9999 SCT030 27/03 Q1017 NOSIG

Tid: 15:40 (12:40 UTC)

Väderprognos

Denna rapport gjordes för 2 timmar och 40 minuter sedan, klockan 10:00 UTC
Prognos gäller från 25 kl. 12 UTC till 26 kl. 12 UTC
Vind 12 kt från väst/nordväst i byarna ända upp till 24 kt
Sikt 10 km eller mer
Inga moln under 1 500 m eller inga cumulonimbus
Blir
från 25 kl. 18 UTC till 25 kl. 20 UTC
Vind 10 kt från väst/nordväst

TAF: ORBI 251000Z 2512/2612 30012G24KT CAVOK BECMG 2518/2520 30010KT

Aktuella väderrapporter och prognoser från 4000 flygplatser (METAR- och TAF-rapporter).

De tillgängliga stationerna syns som gula och röda prickar på kartan.

För musen över prickarna för att se namnen på stationerna.

Klicka sedan för att få väderrapporter och prognoser.

För att ändra kartan: Klicka på de gröna knapparna med ett svart kors på för att zooma in; den gröna knappen med ett streck på för att zooma ut; eller på de gröna pilarna för angränsande kartor.


METAR-TAF: